Time;durP1;ratioP1;P1;durP2;ratioP2;P2;SDS_P1;SDS_P2;PMS_P1;PMS_P2;Temp;Humidity;BMP_temperature;BMP_pressure;BME280_temperature;BME280_humidity;BME280_pressure;Samples;Min_cycle;Max_cycle;Signal;HPM_P1;HPM_P2
2022/05/21 00:00:30;;;;;;;;;;;;;;;11.80;78.50;101923.53;5053035;28;19921;-58
2022/05/21 00:02:56;;;;;;;;;;;;;;;11.73;78.72;101917.13;5052778;28;19928;-58
2022/05/21 00:05:22;;;;;;;;;;;;;;;11.76;79.37;101914.16;5052882;28;19929;-57
2022/05/21 00:07:47;;;;;;;;;;;;;;;11.71;78.95;101914.59;5032237;28;19952;-58
2022/05/21 00:10:14;;;;;;;;;;;;;;;11.68;79.13;101926.34;5052928;28;19959;-58
2022/05/21 00:12:39;;;;;;;;;;;;;;;11.65;79.48;101921.28;5054396;28;19928;-58
2022/05/21 00:15:05;;;;;;;;;;;;;;;11.64;79.25;101924.13;5053442;28;19920;-57
2022/05/21 00:17:31;;;;;;;;;;;;;;;11.68;79.21;101926.34;5049530;28;19928;-57
2022/05/21 00:19:56;;;;;;;;;;;;;;;11.63;79.18;101923.28;5051324;28;20013;-58
2022/05/21 00:22:21;;;;;;;;;;;;;;;11.71;79.39;101925.22;5052589;28;19925;-58
2022/05/21 00:24:48;;;;;;;;;;;;;;;11.63;79.10;101923.28;5050059;28;21659;-58
2022/05/21 00:27:13;;;;;;;;;;;;;;;11.67;79.51;101927.31;5052136;28;19921;-56
2022/05/21 00:29:38;;;;;;;;;;;;;;;11.75;79.03;101925.78;5049836;28;19985;-58
2022/05/21 00:32:04;;;;;;;;;;;;;;;11.63;79.32;101928.59;5053237;28;19956;-58
2022/05/21 00:34:30;;;;;;;;;;;;;;;11.64;79.73;101929.44;5052846;28;20367;-59
2022/05/21 00:36:55;;;;;;;;;;;;;;;11.50;79.60;101925.38;5052380;28;19920;-58
2022/05/21 00:39:20;;;;;;;;;;;;;;;11.53;79.43;101927.75;5050934;28;19947;-58
2022/05/21 00:41:45;;;;;;;;;;;;;;;11.50;79.77;101933.34;5052368;28;19960;-58
2022/05/21 00:44:11;;;;;;;;;;;;;;;11.53;79.89;101933.06;5053161;28;19929;-58
2022/05/21 00:46:38;;;;;;;;;;;;;;;11.50;80.08;101925.38;5051827;28;19956;-58
2022/05/21 00:49:15;;;;;;;;;;;;;;;11.62;79.96;101936.69;5050501;28;19921;-58
2022/05/21 00:51:48;;;;;;;;;;;;;;;11.64;79.43;101934.75;5051332;28;19921;-58
2022/05/21 00:54:15;;;;;;;;;;;;;;;11.53;79.37;101933.06;5049898;28;20011;-57
2022/05/21 00:56:46;;;;;;;;;;;;;;;11.79;79.60;101938.63;5053173;28;19928;-58
2022/05/21 01:01:58;;;;;;;;;;;;;;;11.53;79.47;101933.06;5049365;28;20417;-58
2022/05/21 01:04:24;;;;;;;;;;;;;;;11.73;79.82;101933.88;5053435;28;19917;-58
2022/05/21 01:06:49;;;;;;;;;;;;;;;11.61;79.61;101930.56;5052778;28;20020;-58
2022/05/21 01:09:14;;;;;;;;;;;;;;;11.60;79.91;101934.16;5051332;28;20425;-59
2022/05/21 01:11:40;;;;;;;;;;;;;;;11.57;80.11;101931.81;5050323;28;19921;-58
2022/05/21 01:14:08;;;;;;;;;;;;;;;11.58;79.74;101925.50;5049164;28;19921;-58
2022/05/21 01:16:34;;;;;;;;;;;;;;;11.55;80.12;101931.94;5051261;28;20031;-58
2022/05/21 01:18:59;;;;;;;;;;;;;;;11.61;80.08;101919.94;5053162;28;20383;-58
2022/05/21 01:21:24;;;;;;;;;;;;;;;11.61;79.69;101938.53;5049907;28;19921;-58
2022/05/21 01:23:49;;;;;;;;;;;;;;;11.63;79.69;101925.94;5053010;28;19963;-57
2022/05/21 01:26:16;;;;;;;;;;;;;;;11.60;80.25;101928.84;5057293;28;19928;-58
2022/05/21 01:28:42;;;;;;;;;;;;;;;11.58;80.45;101920.19;5052454;28;19999;-57
2022/05/21 01:31:07;;;;;;;;;;;;;;;11.63;80.04;101917.97;5051502;28;20414;-57
2022/05/21 01:33:34;;;;;;;;;;;;;;;11.60;80.03;101923.53;5052396;28;20263;-58
2022/05/21 01:36:00;;;;;;;;;;;;;;;11.59;80.46;101921.88;5052037;28;19921;-58
2022/05/21 01:38:26;;;;;;;;;;;;;;;11.64;80.12;101922.28;5053973;28;19917;-58
2022/05/21 01:40:52;;;;;;;;;;;;;;;11.65;80.42;101921.28;5051939;28;20413;-58
2022/05/21 01:46:01;;;;;;;;;;;;;;;11.79;80.07;101921.84;5051956;28;19932;-58
2022/05/21 01:48:27;;;;;;;;;;;;;;;11.61;80.49;101913.75;5047968;28;19920;-57
2022/05/21 01:50:53;;;;;;;;;;;;;;;11.77;79.89;101913.16;5050874;28;20073;-57
2022/05/21 01:53:20;;;;;;;;;;;;;;;11.71;80.59;101917.25;5052890;28;20015;-58
2022/05/21 01:55:45;;;;;;;;;;;;;;;11.69;80.11;101912.06;5050140;28;19932;-58
2022/05/21 01:58:11;;;;;;;;;;;;;;;11.65;80.07;101920.47;5052092;28;19921;-58
2022/05/21 02:00:37;;;;;;;;;;;;;;;11.73;80.65;101922.44;5050719;28;19928;-58
2022/05/21 02:03:02;;;;;;;;;;;;;;;11.68;80.76;101915.72;5049267;28;19924;-58
2022/05/21 02:05:27;;;;;;;;;;;;;;;11.71;80.29;101915.41;5033212;28;19921;-58
2022/05/21 02:07:52;;;;;;;;;;;;;;;11.71;80.19;101918.06;5051919;28;19928;-58
2022/05/21 02:10:18;;;;;;;;;;;;;;;11.85;80.31;101926.59;5052182;28;20004;-58
2022/05/21 02:12:43;;;;;;;;;;;;;;;11.71;80.58;101925.22;5052470;28;20275;-57
2022/05/21 02:15:08;;;;;;;;;;;;;;;11.66;80.93;101922.16;5035007;28;19995;-57
2022/05/21 02:17:33;;;;;;;;;;;;;;;11.69;80.78;101924.50;5051685;28;19921;-58
2022/05/21 02:19:59;;;;;;;;;;;;;;;11.76;80.35;101928.28;5048464;28;20407;-58
2022/05/21 02:22:24;;;;;;;;;;;;;;;11.86;80.41;101928.28;5049760;28;19927;-58
2022/05/21 02:24:49;;;;;;;;;;;;;;;11.93;80.94;101934.69;5049698;28;19925;-58
2022/05/21 02:27:15;;;;;;;;;;;;;;;11.68;80.74;101925.50;5037264;28;20019;-58
2022/05/21 02:29:40;;;;;;;;;;;;;;;11.69;81.06;101922.69;5048067;28;19925;-58
2022/05/21 02:32:06;;;;;;;;;;;;;;;11.74;81.29;101929.41;5051289;28;20399;-58
2022/05/21 02:34:32;;;;;;;;;;;;;;;11.68;80.65;101921.03;5048419;28;20007;-57
2022/05/21 02:39:40;;;;;;;;;;;;;;;11.71;81.38;101915.41;5052109;28;19974;-57
2022/05/21 02:42:43;;;;;;;;;;;;;;;11.66;81.36;101923.00;5052249;28;19917;-57
2022/05/21 02:44:51;;;;;;;;;;;;;;;11.68;80.85;101920.19;5046930;28;19956;-58
2022/05/21 02:47:16;;;;;;;;;;;;;;;11.77;81.07;101926.47;5032736;28;20393;-58
2022/05/21 02:49:41;;;;;;;;;;;;;;;11.89;80.92;101921.84;5034376;28;19921;-58
2022/05/21 02:52:06;;;;;;;;;;;;;;;11.73;81.14;101931.22;5050124;28;20409;-58
2022/05/21 02:54:31;;;;;;;;;;;;;;;11.82;81.44;101926.88;5051196;28;19925;-58
2022/05/21 02:56:57;;;;;;;;;;;;;;;11.80;81.00;101928.84;5049496;28;20383;-57
2022/05/21 02:59:22;;;;;;;;;;;;;;;11.71;80.93;101922.56;5049671;28;19924;-58
2022/05/21 03:01:47;;;;;;;;;;;;;;;11.69;81.58;101922.69;5049821;28;20322;-57
2022/05/21 03:04:12;;;;;;;;;;;;;;;11.68;81.59;101936.97;5051901;28;19927;-58
2022/05/21 03:06:38;;;;;;;;;;;;;;;11.69;81.01;101928.00;5052821;28;19921;-58
2022/05/21 03:11:47;;;;;;;;;;;;;;;11.73;81.40;101919.78;5054465;28;19967;-58
2022/05/21 03:14:13;;;;;;;;;;;;;;;11.73;81.36;101922.44;5051304;28;19921;-57
2022/05/21 03:16:38;;;;;;;;;;;;;;;11.67;81.67;101926.47;5051713;28;19928;-57
2022/05/21 03:19:03;;;;;;;;;;;;;;;11.66;81.29;101923.00;5053311;28;19924;-58
2022/05/21 03:21:29;;;;;;;;;;;;;;;11.71;81.05;101919.91;5049213;28;20015;-57
2022/05/21 03:23:54;;;;;;;;;;;;;;;11.65;81.67;101928.44;5053147;28;19948;-57
2022/05/21 03:26:20;;;;;;;;;;;;;;;11.68;81.79;101926.34;5051243;28;19967;-58
2022/05/21 03:28:45;;;;;;;;;;;;;;;11.64;81.27;101918.81;5053702;28;19920;-58
2022/05/21 03:31:11;;;;;;;;;;;;;;;11.64;81.84;101924.94;5054383;28;19921;-58
2022/05/21 03:33:36;;;;;;;;;;;;;;;11.70;81.60;101923.56;5049822;28;19975;-58
2022/05/21 03:36:02;;;;;;;;;;;;;;;11.71;81.88;101928.69;5042869;28;19929;-57
2022/05/21 03:38:27;;;;;;;;;;;;;;;11.65;81.84;101926.63;5052755;28;20007;-57
2022/05/21 03:40:52;;;;;;;;;;;;;;;11.69;81.98;101929.81;5051391;28;20007;-58
2022/05/21 03:43:18;;;;;;;;;;;;;;;11.68;81.96;101926.34;5043271;28;19952;-57
2022/05/21 03:45:43;;;;;;;;;;;;;;;11.68;82.00;101931.66;5052655;28;20345;-58
2022/05/21 03:48:08;;;;;;;;;;;;;;;11.68;81.80;101931.66;5052221;28;19920;-58
2022/05/21 03:50:33;;;;;;;;;;;;;;;11.65;81.46;101926.63;5049560;28;20027;-58
2022/05/21 03:52:59;;;;;;;;;;;;;;;11.69;81.57;101938.63;5053472;28;20383;-58
2022/05/21 03:55:24;;;;;;;;;;;;;;;11.68;81.95;101942.28;5053405;28;20323;-57
2022/05/21 03:57:50;;;;;;;;;;;;;;;11.73;81.80;101944.50;5053425;28;19921;-57
2022/05/21 04:00:16;;;;;;;;;;;;;;;11.65;82.12;101942.56;5051802;28;19975;-57
2022/05/21 04:02:42;;;;;;;;;;;;;;;11.88;81.62;101947.56;5050173;28;19920;-58
2022/05/21 04:05:08;;;;;;;;;;;;;;;11.74;82.07;101940.88;5052889;28;20371;-58
2022/05/21 04:07:33;;;;;;;;;;;;;;;11.63;82.53;101939.22;5053721;28;19978;-57
2022/05/21 04:09:59;;;;;;;;;;;;;;;11.77;81.87;101950.38;5052764;28;19921;-58
2022/05/21 04:12:24;;;;;;;;;;;;;;;11.62;81.76;101942.84;5053195;28;20370;-57
2022/05/21 04:14:49;;;;;;;;;;;;;;;11.70;82.40;101956.25;5045457;28;19920;-58
2022/05/21 04:17:15;;;;;;;;;;;;;;;11.68;82.18;101946.75;5031904;28;19924;-58
2022/05/21 04:19:41;;;;;;;;;;;;;;;11.73;82.00;101956.97;5050327;28;20334;-58
2022/05/21 04:22:06;;;;;;;;;;;;;;;11.63;81.82;101957.81;5054084;28;19924;-57
2022/05/21 04:24:31;;;;;;;;;;;;;;;11.80;82.05;101955.41;5051785;28;19948;-58
2022/05/21 04:26:57;;;;;;;;;;;;;;;11.69;82.24;101959.03;5047829;28;19974;-57
2022/05/21 04:29:22;;;;;;;;;;;;;;;11.75;82.42;101963.78;5051911;28;19960;-58
2022/05/21 04:31:48;;;;;;;;;;;;;;;11.66;82.08;101965.50;5051294;28;20294;-57
2022/05/21 04:34:13;;;;;;;;;;;;;;;11.68;82.32;101966.19;5051980;28;19921;-57
2022/05/21 04:36:38;;;;;;;;;;;;;;;11.91;81.91;101976.53;5052088;28;19921;-56
2022/05/21 04:39:03;;;;;;;;;;;;;;;11.70;82.60;101972.19;5044969;28;19928;-57
2022/05/21 04:41:29;;;;;;;;;;;;;;;11.73;81.97;101965.75;5049143;28;19944;-56
2022/05/21 04:43:54;;;;;;;;;;;;;;;11.73;82.45;101964.94;5049337;28;21751;-57
2022/05/21 04:46:20;;;;;;;;;;;;;;;11.87;82.11;101980.44;5046964;28;20016;-56
2022/05/21 04:48:46;;;;;;;;;;;;;;;11.71;81.91;101981.84;5050836;28;20299;-56
2022/05/21 04:51:12;;;;;;;;;;;;;;;11.64;82.35;101978.06;5047564;28;19925;-57
2022/05/21 04:53:37;;;;;;;;;;;;;;;11.73;82.75;101975.56;5052905;28;19944;-56
2022/05/21 04:56:03;;;;;;;;;;;;;;;11.64;82.63;101977.25;5052666;28;19924;-57
2022/05/21 04:58:28;;;;;;;;;;;;;;;11.66;82.49;101976.13;5049281;28;20039;-57
2022/05/21 05:00:54;;;;;;;;;;;;;;;11.68;82.78;101974.16;5050668;28;20405;-56
2022/05/21 05:03:19;;;;;;;;;;;;;;;11.69;82.83;101980.31;5046322;28;19929;-57
2022/05/21 05:05:46;;;;;;;;;;;;;;;11.77;82.60;101987.56;5043602;28;19927;-57
2022/05/21 05:08:12;;;;;;;;;;;;;;;11.74;82.58;101988.69;5040722;28;19921;-56
2022/05/21 05:10:37;;;;;;;;;;;;;;;11.74;82.85;101987.88;5048906;28;19921;-56
2022/05/21 05:13:03;;;;;;;;;;;;;;;11.76;83.00;101985.91;5052385;28;19985;-57
2022/05/21 05:15:28;;;;;;;;;;;;;;;11.75;83.17;101984.22;5050180;28;20035;-57
2022/05/21 05:18:00;;;;;;;;;;;;;;;11.87;83.14;101988.41;5047278;28;20437;-56
2022/05/21 05:20:26;;;;;;;;;;;;;;;11.91;83.03;102000.44;5050985;28;19921;-57
2022/05/21 05:22:51;;;;;;;;;;;;;;;11.86;82.78;101997.38;5044414;28;19925;-57
2022/05/21 05:25:16;;;;;;;;;;;;;;;11.96;82.80;101998.22;5046328;28;19927;-57
2022/05/21 05:27:41;;;;;;;;;;;;;;;11.90;82.61;102004.06;5050009;28;20047;-57
2022/05/21 05:30:07;;;;;;;;;;;;;;;12.01;82.70;101997.78;5047679;28;19999;-57
2022/05/21 05:32:32;;;;;;;;;;;;;;;11.99;82.74;102005.03;5044256;28;19925;-57
2022/05/21 05:34:57;;;;;;;;;;;;;;;12.07;82.13;102015.84;5042375;28;19921;-57
2022/05/21 05:37:22;;;;;;;;;;;;;;;11.95;82.59;102012.47;5044695;28;19929;-56
2022/05/21 05:39:48;;;;;;;;;;;;;;;12.01;83.26;102010.22;5043643;28;19927;-59
2022/05/21 05:42:13;;;;;;;;;;;;;;;12.03;83.22;102016.25;5046594;28;19974;-58
2022/05/21 05:44:38;;;;;;;;;;;;;;;12.06;83.01;102008.84;5043783;28;19996;-58
2022/05/21 05:47:03;;;;;;;;;;;;;;;12.02;82.92;102012.75;5043141;28;19921;-57
2022/05/21 05:49:29;;;;;;;;;;;;;;;12.08;82.90;102016.66;5042924;28;20356;-58
2022/05/21 05:51:54;;;;;;;;;;;;;;;12.10;83.34;102020.03;5047116;28;20302;-58
2022/05/21 05:54:19;;;;;;;;;;;;;;;12.19;83.33;102019.16;5044539;28;19924;-57
2022/05/21 05:56:44;;;;;;;;;;;;;;;12.23;83.47;102020.56;5049244;28;19975;-58
2022/05/21 06:02:58;;;;;;;;;;;;;;;12.32;82.04;102018.03;5047362;28;19931;-58
2022/05/21 06:04:40;;;;;;;;;;;;;;;12.19;82.67;102019.16;5042283;28;20007;-59
2022/05/21 06:07:06;;;;;;;;;;;;;;;12.08;82.91;102032.63;5046693;28;19979;-57
2022/05/21 06:09:32;;;;;;;;;;;;;;;12.14;83.06;102025.91;5044889;28;19924;-61
2022/05/21 06:11:57;;;;;;;;;;;;;;;12.08;82.84;102027.31;5050046;28;19999;-59
2022/05/21 06:14:22;;;;;;;;;;;;;;;12.15;82.66;102016.94;5040653;28;20020;-60
2022/05/21 06:16:47;;;;;;;;;;;;;;;12.29;82.65;102026.31;5047186;28;20356;-59
2022/05/21 06:19:13;;;;;;;;;;;;;;;12.23;82.96;102025.88;5044766;28;19975;-60
2022/05/21 06:21:38;;;;;;;;;;;;;;;12.32;82.61;102033.97;5045621;28;19928;-60
2022/05/21 06:24:03;;;;;;;;;;;;;;;12.32;82.67;102033.97;5043365;28;20248;-59
2022/05/21 06:26:28;;;;;;;;;;;;;;;12.42;82.70;102040.13;5038630;28;19940;-60
2022/05/21 06:28:55;;;;;;;;;;;;;;;12.44;82.68;102039.97;5043838;28;19932;-60
2022/05/21 06:31:22;;;;;;;;;;;;;;;12.53;82.50;102041.75;5045315;28;19927;-60
2022/05/21 06:33:47;;;;;;;;;;;;;;;12.52;82.64;102042.75;5040505;28;19921;-60
2022/05/21 06:36:16;;;;;;;;;;;;;;;12.62;82.69;102045.38;5045872;28;19917;-59
2022/05/21 06:38:43;;;;;;;;;;;;;;;12.82;81.94;102046.16;5046713;28;19949;-59
2022/05/21 06:41:09;;;;;;;;;;;;;;;12.78;82.18;102042.94;5051646;28;20003;-61
2022/05/21 06:43:34;;;;;;;;;;;;;;;12.86;82.22;102052.00;5045284;28;20005;-60
2022/05/21 06:46:00;;;;;;;;;;;;;;;12.96;82.24;102058.13;5044745;28;19924;-60
2022/05/21 06:48:25;;;;;;;;;;;;;;;12.98;81.96;102056.16;5049324;28;19921;-60
2022/05/21 06:50:51;;;;;;;;;;;;;;;13.15;80.93;102064.34;5053290;28;20329;-60
2022/05/21 06:53:16;;;;;;;;;;;;;;;13.22;81.07;102053.94;5047332;28;20390;-60
2022/05/21 06:55:41;;;;;;;;;;;;;;;13.26;80.54;102053.50;5034383;28;19922;-60
2022/05/21 06:58:07;;;;;;;;;;;;;;;13.21;80.82;102050.44;5044317;28;19972;-61
2022/05/21 07:00:32;;;;;;;;;;;;;;;13.23;80.66;102064.44;5047715;28;20283;-57
2022/05/21 07:02:57;;;;;;;;;;;;;;;13.24;80.38;102065.28;5055096;28;20356;-58
2022/05/21 07:08:20;;;;;;;;;;;;;;;13.33;80.31;102072.41;5046991;28;19924;-59
2022/05/21 07:10:46;;;;;;;;;;;;;;;13.35;80.07;102061.56;5049373;28;20329;-58
2022/05/21 07:13:12;;;;;;;;;;;;;;;13.40;79.52;102067.28;5051723;28;20016;-58
2022/05/21 07:15:37;;;;;;;;;;;;;;;13.39;79.44;102074.47;5050052;28;20283;-58
2022/05/21 07:18:03;;;;;;;;;;;;;;;13.49;79.12;102079.75;5050023;28;19920;-58
2022/05/21 07:20:29;;;;;;;;;;;;;;;13.38;79.83;102087.91;5050855;28;20302;-58
2022/05/21 07:22:54;;;;;;;;;;;;;;;13.38;80.14;102087.91;5043477;28;19966;-58
2022/05/21 07:25:21;;;;;;;;;;;;;;;13.41;79.68;102088.47;5044047;28;20346;-58
2022/05/21 07:27:46;;;;;;;;;;;;;;;13.56;79.49;102083.47;5045859;28;19945;-58
2022/05/21 07:30:11;;;;;;;;;;;;;;;13.63;79.80;102090.88;5046693;28;19998;-57
2022/05/21 07:32:37;;;;;;;;;;;;;;;13.69;79.58;102090.28;5049453;28;19975;-58
2022/05/21 07:35:04;;;;;;;;;;;;;;;13.90;77.90;102086.44;5049764;28;19925;-58
2022/05/21 07:37:29;;;;;;;;;;;;;;;13.90;77.98;102083.78;5047981;28;19968;-58
2022/05/21 07:39:55;;;;;;;;;;;;;;;13.76;78.47;102091.34;5049509;28;19960;-58
2022/05/21 07:42:20;;;;;;;;;;;;;;;13.89;78.12;102095.44;5055526;28;19951;-58
2022/05/21 07:44:45;;;;;;;;;;;;;;;14.00;77.25;102095.22;5051037;28;20520;-58
2022/05/21 07:47:11;;;;;;;;;;;;;;;13.90;77.49;102091.78;5052158;28;19927;-60
2022/05/21 07:49:36;;;;;;;;;;;;;;;14.06;77.46;102101.78;5053151;28;19929;-60
2022/05/21 07:52:02;;;;;;;;;;;;;;;14.11;77.86;102105.66;5052466;28;20115;-60
2022/05/21 07:54:27;;;;;;;;;;;;;;;14.20;77.32;102100.38;5054880;28;19952;-59
2022/05/21 07:56:53;;;;;;;;;;;;;;;14.47;76.27;102093.25;5052998;28;20022;-60
2022/05/21 07:59:18;;;;;;;;;;;;;;;14.47;77.15;102096.78;5051603;28;19920;-60
2022/05/21 08:01:43;;;;;;;;;;;;;;;14.66;76.05;102098.38;5051294;28;19921;-60
2022/05/21 08:04:08;;;;;;;;;;;;;;;14.88;73.92;102098.88;5052400;28;19921;-60
2022/05/21 08:06:34;;;;;;;;;;;;;;;14.92;73.29;102102.88;5050780;28;19927;-60
2022/05/21 08:09:00;;;;;;;;;;;;;;;14.89;73.11;102113.88;5048831;28;19921;-60
2022/05/21 08:11:25;;;;;;;;;;;;;;;14.80;74.40;102109.47;5051726;28;19920;-60
2022/05/21 08:13:50;;;;;;;;;;;;;;;14.87;74.43;102115.88;5059232;28;19928;-60
2022/05/21 08:16:15;;;;;;;;;;;;;;;14.96;74.40;102113.25;5037461;28;20003;-60
2022/05/21 08:18:41;;;;;;;;;;;;;;;14.97;74.69;102115.75;5048230;28;19955;-58
2022/05/21 08:21:06;;;;;;;;;;;;;;;15.13;73.80;102122.16;5051008;28;19936;-58
2022/05/21 08:29:00;;;;;;;;;;;;;;;15.03;72.92;102124.97;5038082;28;19932;-60
2022/05/21 08:31:25;;;;;;;;;;;;;;;15.03;73.02;102130.31;5051917;28;20507;-60
2022/05/21 08:33:50;;;;;;;;;;;;;;;15.04;73.32;102121.28;5049802;28;19936;-60
2022/05/21 08:36:15;;;;;;;;;;;;;;;15.20;71.35;102116.03;5052030;28;20383;-60
2022/05/21 08:38:41;;;;;;;;;;;;;;;15.15;72.04;102123.69;5052935;28;19932;-60
2022/05/21 08:41:11;;;;;;;;;;;;;;;15.10;71.17;102127.84;5056607;28;20595;-60
2022/05/21 08:43:36;;;;;;;;;;;;;;;14.96;71.75;102121.25;5035171;28;19921;-61
2022/05/21 08:46:25;;;;;;;;;;;;;;;14.93;72.92;102131.28;5053601;28;19917;-61
2022/05/21 08:48:56;;;;;;;;;;;;;;;14.87;72.93;102126.56;5052076;28;19927;-60
2022/05/21 08:51:24;;;;;;;;;;;;;;;15.10;71.50;102120.66;5052477;28;19916;-60
2022/05/21 08:53:50;;;;;;;;;;;;;;;15.16;71.82;102120.00;5051198;28;19956;-59
2022/05/21 08:56:15;;;;;;;;;;;;;;;15.33;72.00;102120.06;5053324;28;20275;-61
2022/05/21 08:58:46;;;;;;;;;;;;;;;15.29;71.56;102116.06;5043685;28;19948;-61
2022/05/21 09:01:12;;;;;;;;;;;;;;;15.20;70.48;102110.69;5045799;28;19921;-60
2022/05/21 09:03:37;;;;;;;;;;;;;;;15.13;71.19;102108.81;5047699;28;19960;-60
2022/05/21 09:06:18;;;;;;;;;;;;;;;15.33;70.54;102104.03;5048858;28;20443;-59
2022/05/21 09:09:06;;;;;;;;;;;;;;;15.56;70.43;102103.44;5050124;28;20007;-59
2022/05/21 09:11:36;;;;;;;;;;;;;;;15.70;70.32;102105.47;5051853;28;20015;-60
2022/05/21 09:14:25;;;;;;;;;;;;;;;15.74;69.89;102111.31;5052338;28;20470;-60
2022/05/21 09:16:56;;;;;;;;;;;;;;;15.94;68.53;102106.53;5037791;28;19921;-60
2022/05/21 09:19:25;;;;;;;;;;;;;;;16.15;68.53;102102.53;5050073;28;20723;-61
2022/05/21 09:21:56;;;;;;;;;;;;;;;16.26;68.36;102104.88;5042307;28;19984;-58
2022/05/21 09:24:35;;;;;;;;;;;;;;;16.36;69.60;102098.50;5038169;28;19927;-60
2022/05/21 09:27:00;;;;;;;;;;;;;;;16.57;68.14;102094.47;5040366;28;20375;-62
2022/05/21 09:29:27;;;;;;;;;;;;;;;16.51;67.43;102091.47;5042826;28;19974;-60
2022/05/21 09:31:55;;;;;;;;;;;;;;;16.44;66.29;102106.53;5048673;28;19920;-58
2022/05/21 09:34:31;;;;;;;;;;;;;;;16.18;65.87;102104.03;5046898;28;20363;-60
2022/05/21 09:36:58;;;;;;;;;;;;;;;16.12;66.01;102108.22;5043379;28;20342;-58
2022/05/21 09:39:30;;;;;;;;;;;;;;;16.05;66.10;102112.56;5045640;28;19929;-60
2022/05/21 09:45:24;;;;;;;;;;;;;;;16.13;66.55;102099.16;5042127;28;19931;-58
2022/05/21 09:48:13;;;;;;;;;;;;;;;16.05;66.16;102112.56;5051149;28;19968;-58
2022/05/21 09:50:42;;;;;;;;;;;;;;;15.99;65.99;102106.88;5050099;28;19952;-58
2022/05/21 09:53:20;;;;;;;;;;;;;;;15.96;65.61;102115.25;5049205;28;19921;-58
2022/05/21 09:55:55;;;;;;;;;;;;;;;15.72;66.30;102119.53;5049874;28;20449;-58
2022/05/21 09:58:21;;;;;;;;;;;;;;;15.80;66.89;102115.19;5045915;28;19921;-57
2022/05/21 10:00:52;;;;;;;;;;;;;;;16.04;66.44;102111.72;5051285;28;19966;-58
2022/05/21 10:03:33;;;;;;;;;;;;;;;16.18;66.96;102112.88;5050808;28;19943;-57
2022/05/21 10:06:00;;;;;;;;;;;;;;;16.50;65.10;102111.22;5050342;28;19973;-58
2022/05/21 10:11:22;;;;;;;;;;;;;;;16.36;65.73;102117.22;5049368;28;19992;-58
2022/05/21 10:13:50;;;;;;;;;;;;;;;16.21;65.83;102119.75;5028672;28;19964;-58
2022/05/21 10:16:21;;;;;;;;;;;;;;;16.19;65.51;102125.25;5044594;28;19932;-58
2022/05/21 10:18:49;;;;;;;;;;;;;;;16.18;66.06;102118.25;5043424;28;19931;-58
2022/05/21 10:21:30;;;;;;;;;;;;;;;16.17;66.87;102121.94;5042185;28;19921;-57
2022/05/21 10:24:02;;;;;;;;;;;;;;;16.19;66.95;102117.22;5039484;28;19921;-58
2022/05/21 10:26:35;;;;;;;;;;;;;;;16.20;66.23;102120.75;5045402;28;19920;-58
2022/05/21 10:29:22;;;;;;;;;;;;;;;16.14;66.49;102111.56;5042903;28;19956;-57
2022/05/21 10:32:11;;;;;;;;;;;;;;;16.20;66.15;102116.25;5015573;28;19929;-57
2022/05/21 10:34:36;;;;;;;;;;;;;;;16.25;65.98;102127.25;5031101;28;19935;-58
2022/05/21 10:37:01;;;;;;;;;;;;;;;16.34;65.95;102122.75;5038123;28;19917;-58
2022/05/21 10:39:33;;;;;;;;;;;;;;;16.60;65.63;102126.22;5041324;28;19956;-58
2022/05/21 10:42:17;;;;;;;;;;;;;;;16.48;65.07;102121.22;5042683;28;19923;-58
2022/05/21 10:44:54;;;;;;;;;;;;;;;16.56;65.99;102114.19;5036915;28;20419;-58
2022/05/21 10:47:19;;;;;;;;;;;;;;;16.69;66.11;102119.88;5039561;28;19916;-58
2022/05/21 10:49:47;;;;;;;;;;;;;;;16.79;64.24;102125.03;5039750;28;19927;-58
2022/05/21 10:52:19;;;;;;;;;;;;;;;16.72;64.75;102119.50;5045234;28;19920;-58
2022/05/21 10:55:03;;;;;;;;;;;;;;;16.67;65.47;102121.88;5037377;28;19921;-58
2022/05/21 10:57:44;;;;;;;;;;;;;;;16.60;64.79;102123.56;5044854;28;20004;-59
2022/05/21 11:00:32;;;;;;;;;;;;;;;16.60;65.23;102120.88;5043375;28;19970;-58
2022/05/21 11:03:16;;;;;;;;;;;;;;;16.94;63.32;102122.47;5040412;28;19921;-58
2022/05/21 11:05:50;;;;;;;;;;;;;;;16.94;63.45;102117.94;5038001;28;19920;-56
2022/05/21 11:08:27;;;;;;;;;;;;;;;16.86;62.17;102131.38;5045164;28;20094;-58
2022/05/21 11:10:57;;;;;;;;;;;;;;;16.77;61.83;102130.56;5045860;28;20298;-58
2022/05/21 11:13:30;;;;;;;;;;;;;;;16.78;62.67;102124.19;5042742;28;19920;-57
2022/05/21 11:16:06;;;;;;;;;;;;;;;16.79;62.56;102127.72;5044073;28;19921;-58
2022/05/21 11:18:39;;;;;;;;;;;;;;;16.72;63.74;102140.94;5041495;28;19921;-59
2022/05/21 11:21:21;;;;;;;;;;;;;;;16.88;62.33;102131.22;5041226;28;20322;-58
2022/05/21 11:23:55;;;;;;;;;;;;;;;16.84;63.20;102122.69;5046652;28;20043;-61
2022/05/21 11:26:31;;;;;;;;;;;;;;;17.21;62.14;102131.09;5046248;28;19921;-60
2022/05/21 11:28:59;;;;;;;;;;;;;;;17.43;59.95;102126.81;5049739;28;20279;-60
2022/05/21 11:39:44;;;;;;;;;;;;;;;17.84;58.18;102128.41;5044141;28;20377;-60
2022/05/21 11:42:12;;;;;;;;;;;;;;;17.86;58.58;102121.00;5046565;28;19921;-60
2022/05/21 11:45:01;;;;;;;;;;;;;;;17.99;57.28;102119.56;5047711;28;19921;-59
2022/05/21 11:47:26;;;;;;;;;;;;;;;17.97;58.79;102116.25;5045232;28;19927;-59
2022/05/21 11:49:57;;;;;;;;;;;;;;;18.08;56.91;102123.91;5046215;28;19925;-60
2022/05/21 11:52:25;;;;;;;;;;;;;;;18.03;57.18;102120.91;5045568;28;19920;-60
2022/05/21 11:54:50;;;;;;;;;;;;;;;18.23;55.46;102121.28;5045223;28;20858;-59
2022/05/21 11:57:34;;;;;;;;;;;;;;;18.31;56.12;102122.22;5045763;28;20355;-59
2022/05/21 12:00:00;;;;;;;;;;;;;;;18.17;57.14;102116.63;5046631;28;20397;-56
2022/05/21 12:02:27;;;;;;;;;;;;;;;18.19;57.87;102113.75;5046336;28;19921;-56
2022/05/21 12:04:54;;;;;;;;;;;;;;;18.35;57.20;102113.59;5037298;28;19936;-56
2022/05/21 12:07:38;;;;;;;;;;;;;;;18.47;57.17;102115.84;5050901;28;19922;-56
2022/05/21 12:10:09;;;;;;;;;;;;;;;18.60;55.48;102116.03;5049157;28;19983;-55
2022/05/21 12:12:55;;;;;;;;;;;;;;;18.59;54.99;102114.38;5041061;28;19921;-55
2022/05/21 12:15:32;;;;;;;;;;;;;;;18.43;56.24;102104.63;5045775;28;19924;-55
2022/05/21 12:18:00;;;;;;;;;;;;;;;18.35;56.87;102102.84;5043398;28;20031;-55
2022/05/21 12:20:40;;;;;;;;;;;;;;;18.33;57.06;102110.28;5040843;28;19921;-55
2022/05/21 12:23:10;;;;;;;;;;;;;;;18.40;56.75;102116.56;5048115;28;19937;-56
2022/05/21 12:25:44;;;;;;;;;;;;;;;18.26;56.06;102115.53;5046430;28;20322;-57
2022/05/21 12:28:10;;;;;;;;;;;;;;;18.30;55.49;102105.25;5041475;28;19921;-56
2022/05/21 12:30:36;;;;;;;;;;;;;;;18.28;56.10;102101.91;5046316;28;19974;-55
2022/05/21 12:33:01;;;;;;;;;;;;;;;18.54;54.50;102106.03;5044645;28;19921;-56
2022/05/21 12:35:41;;;;;;;;;;;;;;;18.74;56.20;102110.88;5037939;28;19928;-55
2022/05/21 12:38:07;;;;;;;;;;;;;;;18.71;55.48;102111.22;5042795;28;20008;-55
2022/05/21 12:40:50;;;;;;;;;;;;;;;18.73;54.93;102106.50;5047117;28;20457;-56
2022/05/21 12:43:15;;;;;;;;;;;;;;;18.80;54.37;102102.06;5039268;28;19921;-55
2022/05/21 12:45:47;;;;;;;;;;;;;;;18.92;54.96;102105.09;5045241;28;19956;-55
2022/05/21 12:48:24;;;;;;;;;;;;;;;19.19;52.83;102103.63;5049224;28;19932;-55
2022/05/21 12:50:53;;;;;;;;;;;;;;;19.13;53.01;102109.75;5049418;28;19921;-56
2022/05/21 12:53:21;;;;;;;;;;;;;;;19.18;50.98;102104.66;5049896;28;19940;-57
2022/05/21 12:55:56;;;;;;;;;;;;;;;18.93;52.82;102098.72;5051308;28;19920;-57
2022/05/21 12:58:22;;;;;;;;;;;;;;;18.78;54.07;102102.25;5052069;28;20069;-57
2022/05/21 13:00:52;;;;;;;;;;;;;;;18.67;55.13;102100.88;5052327;28;20523;-57
2022/05/21 13:03:18;;;;;;;;;;;;;;;18.60;55.04;102099.09;5051664;28;19917;-57
2022/05/21 13:05:50;;;;;;;;;;;;;;;18.49;56.13;102103.06;5052471;28;20008;-57
2022/05/21 13:08:15;;;;;;;;;;;;;;;18.54;53.88;102101.50;5052110;28;20019;-57
2022/05/21 13:10:50;;;;;;;;;;;;;;;18.51;54.13;102101.03;5053069;28;20019;-57
2022/05/21 13:13:19;;;;;;;;;;;;;;;18.54;53.49;102103.34;5050471;28;19916;-57
2022/05/21 13:15:50;;;;;;;;;;;;;;;18.61;53.73;102108.81;5040625;28;19928;-57